Current Weather

Diffa

Diffa, Niger (DRZF)

Report from: Wednesday, May 29, 2024 4:00 PM WAT
Current time: Thursday, May 30, 2024 1:08 AM WAT

Nearby weather – Weather history – Daily summaries
Weather forecast

Temperature43.0°C (109.4°F)
Heat index45.9°C (114.6°F)
Dew point18.0°C (64.4°F)
Winds 2 kts (1 m/s, 2.3 mph) Vrb
Winds variableWinds variable
Visibility3.7 mi. (6 km)
Altimeter29.71 in.Hg (1006 mB)
Relative humidity24 %
Density altitude3,650 ft. (1,113 m)
Flight conditions Marginal Visual Meteorological Conditions
Raw dataDRZF 291500Z VRB02KT 6000 NSC 43/18 Q1006
An error has occurred. This application may no longer respond until reloaded. Reload 🗙